Time;durP1;ratioP1;P1;durP2;ratioP2;P2;SDS_P1;SDS_P2;PMS_P1;PMS_P2;Temp;Humidity;BMP_temperature;BMP_pressure;BME280_temperature;BME280_humidity;BME280_pressure;Samples;Min_cycle;Max_cycle;Signal;HPM_P1;HPM_P2
2021/11/24 00:01:47;;;;;;;0.30;0.30;;;-1.00;99.90;;;;;;5013902;28;20422;-85
2021/11/24 00:04:14;;;;;;;0.60;0.60;;;-1.10;99.90;;;;;;5014069;28;20452;-85
2021/11/24 00:06:41;;;;;;;0.30;0.30;;;-1.10;99.90;;;;;;5014252;28;20443;-85
2021/11/24 00:09:09;;;;;;;1.03;0.80;;;-1.10;99.90;;;;;;5014127;28;20444;-85
2021/11/24 00:11:36;;;;;;;0.30;0.30;;;-1.10;99.90;;;;;;5013781;28;20793;-85
2021/11/24 00:14:02;;;;;;;0.30;0.30;;;-1.10;99.90;;;;;;5013925;28;20478;-85
2021/11/24 00:16:29;;;;;;;0.30;0.30;;;-1.00;99.90;;;;;;5014023;28;20479;-85
2021/11/24 00:18:56;;;;;;;0.30;0.30;;;-1.00;99.90;;;;;;5014126;28;20413;-85
2021/11/24 00:21:22;;;;;;;0.30;0.30;;;-1.00;99.90;;;;;;5014288;28;20430;-85
2021/11/24 00:23:49;;;;;;;0.30;0.30;;;-1.00;99.90;;;;;;5013737;28;20826;-85
2021/11/24 00:26:17;;;;;;;0.30;0.30;;;-1.00;99.90;;;;;;5013516;28;20410;-85
2021/11/24 00:28:44;;;;;;;0.40;0.40;;;-1.00;99.90;;;;;;5013859;28;20818;-86
2021/11/24 00:31:11;;;;;;;0.30;0.30;;;-1.00;99.90;;;;;;5013913;28;20432;-85
2021/11/24 00:33:38;;;;;;;0.30;0.30;;;-1.00;99.90;;;;;;5013815;28;20458;-86
2021/11/24 00:36:05;;;;;;;1.30;1.10;;;-1.00;99.90;;;;;;5013681;28;20506;-86
2021/11/24 00:38:32;;;;;;;0.30;0.30;;;-1.00;99.90;;;;;;5013722;28;20818;-86
2021/11/24 00:40:59;;;;;;;0.30;0.30;;;-1.10;99.90;;;;;;5013509;28;20427;-85
2021/11/24 00:43:27;;;;;;;0.30;0.30;;;-1.10;99.90;;;;;;5013718;28;20462;-85
2021/11/24 00:45:55;;;;;;;0.30;0.30;;;-1.10;99.90;;;;;;5013697;28;20477;-86
2021/11/24 00:48:22;;;;;;;0.40;0.40;;;-1.10;99.90;;;;;;5013734;28;20457;-86
2021/11/24 00:50:49;;;;;;;0.30;0.30;;;-1.20;99.90;;;;;;5013800;28;20424;-86
2021/11/24 00:53:16;;;;;;;0.63;0.50;;;-1.20;99.90;;;;;;5013803;28;20759;-86
2021/11/24 00:55:43;;;;;;;0.30;0.30;;;-1.30;99.90;;;;;;5013303;28;20427;-85
2021/11/24 00:58:09;;;;;;;0.40;0.40;;;-1.30;99.90;;;;;;5013772;28;20455;-86
2021/11/24 01:00:38;;;;;;;0.40;0.40;;;-1.30;99.90;;;;;;5013465;28;20407;-86
2021/11/24 01:03:04;;;;;;;0.50;0.50;;;-1.40;99.90;;;;;;5013411;28;20410;-86
2021/11/24 01:05:31;;;;;;;0.50;0.50;;;-1.40;99.90;;;;;;5013328;28;20463;-86
2021/11/24 01:07:58;;;;;;;0.30;0.30;;;-1.40;99.90;;;;;;5013644;28;20448;-86
2021/11/24 01:10:25;;;;;;;0.77;0.77;;;-1.40;99.90;;;;;;5013641;28;20429;-86
2021/11/24 01:12:52;;;;;;;0.73;0.73;;;-1.30;99.90;;;;;;5013919;28;20770;-86
2021/11/24 01:15:18;;;;;;;1.80;1.70;;;-1.30;99.90;;;;;;5017183;28;20438;-86
2021/11/24 01:17:47;;;;;;;0.30;0.30;;;-1.40;99.90;;;;;;5016890;28;20485;-85
2021/11/24 01:20:14;;;;;;;0.57;0.57;;;-1.50;99.90;;;;;;5016898;28;20466;-86
2021/11/24 01:22:41;;;;;;;0.30;0.30;;;-1.50;99.90;;;;;;5017920;28;20418;-86
2021/11/24 01:25:09;;;;;;;0.40;0.37;;;-1.50;99.90;;;;;;5016668;28;20972;-86
2021/11/24 01:27:36;;;;;;;0.30;0.30;;;-1.60;99.90;;;;;;5016731;28;20415;-86
2021/11/24 01:30:03;;;;;;;0.43;0.43;;;-1.50;99.90;;;;;;5016924;28;20451;-86
2021/11/24 01:32:30;;;;;;;0.30;0.30;;;-1.50;99.90;;;;;;5016559;28;20933;-86
2021/11/24 01:34:58;;;;;;;2.23;0.70;;;-1.60;99.90;;;;;;5016556;28;20448;-86
2021/11/24 01:37:25;;;;;;;0.30;0.30;;;-1.60;99.90;;;;;;5016683;28;20465;-86
2021/11/24 01:39:52;;;;;;;0.30;0.30;;;-1.60;99.90;;;;;;5016813;28;20426;-86
2021/11/24 01:42:19;;;;;;;0.30;0.30;;;-1.60;99.90;;;;;;5016999;28;20418;-86
2021/11/24 01:44:46;;;;;;;0.30;0.30;;;-1.60;99.90;;;;;;4997114;28;20979;-86
2021/11/24 01:47:13;;;;;;;1.03;1.03;;;-1.60;99.90;;;;;;4997109;28;20440;-86
2021/11/24 01:49:40;;;;;;;0.30;0.30;;;-1.50;99.90;;;;;;4997076;28;20423;-86
2021/11/24 01:52:08;;;;;;;0.40;0.37;;;-1.50;99.90;;;;;;4996735;28;20436;-86
2021/11/24 01:54:35;;;;;;;1.00;0.50;;;-1.40;99.90;;;;;;4996909;28;20976;-86
2021/11/24 01:57:02;;;;;;;0.60;0.60;;;-1.40;99.90;;;;;;4996972;28;20443;-86
2021/11/24 01:59:29;;;;;;;0.30;0.30;;;-1.40;99.90;;;;;;4996788;28;20435;-86
2021/11/24 02:01:57;;;;;;;0.30;0.30;;;-1.40;99.90;;;;;;4996741;28;20441;-86
2021/11/24 02:04:24;;;;;;;0.30;0.30;;;-1.40;99.90;;;;;;4997004;28;20452;-86
2021/11/24 02:06:51;;;;;;;0.30;0.30;;;-1.40;99.90;;;;;;4996506;28;20448;-86
2021/11/24 02:09:20;;;;;;;0.37;0.37;;;-1.40;99.90;;;;;;4996790;28;20459;-86
2021/11/24 02:11:48;;;;;;;0.30;0.30;;;-1.40;99.90;;;;;;4996778;28;20418;-86
2021/11/24 02:14:16;;;;;;;0.83;0.83;;;-1.40;99.90;;;;;;4996870;28;20469;-86
2021/11/24 02:16:44;;;;;;;0.30;0.30;;;-1.40;99.90;;;;;;4996903;28;20458;-86
2021/11/24 02:19:11;;;;;;;0.70;0.70;;;-1.30;99.90;;;;;;4996579;28;20453;-86
2021/11/24 02:21:39;;;;;;;0.30;0.30;;;-1.30;99.90;;;;;;4996515;28;20926;-86
2021/11/24 02:24:06;;;;;;;0.30;0.30;;;-1.30;99.90;;;;;;4996265;28;20446;-86
2021/11/24 02:26:32;;;;;;;0.30;0.30;;;-1.40;99.90;;;;;;4996560;28;20468;-86
2021/11/24 02:28:59;;;;;;;0.40;0.40;;;-1.40;99.90;;;;;;4996195;28;20967;-86
2021/11/24 02:31:27;;;;;;;0.60;0.60;;;-1.40;99.90;;;;;;4996306;28;20459;-86
2021/11/24 02:33:56;;;;;;;0.30;0.30;;;-1.40;99.90;;;;;;4996356;28;20431;-86
2021/11/24 02:36:24;;;;;;;0.30;0.30;;;-1.40;99.90;;;;;;4996252;28;20463;-86
2021/11/24 02:38:52;;;;;;;0.30;0.30;;;-1.50;99.90;;;;;;4996246;28;20452;-86
2021/11/24 02:41:19;;;;;;;0.30;0.30;;;-1.60;99.90;;;;;;4995758;28;20416;-86
2021/11/24 02:43:46;;;;;;;0.40;0.40;;;-1.60;99.90;;;;;;5007205;28;20449;-86
2021/11/24 02:46:13;;;;;;;0.30;0.30;;;-1.70;99.90;;;;;;5015755;28;20422;-86
2021/11/24 02:48:40;;;;;;;0.30;0.30;;;-1.60;99.90;;;;;;5015547;28;20422;-86
2021/11/24 02:51:07;;;;;;;0.30;0.30;;;-1.60;99.90;;;;;;5015328;28;20446;-86
2021/11/24 02:53:35;;;;;;;0.30;0.30;;;-1.60;99.90;;;;;;5015617;28;20447;-86
2021/11/24 02:56:05;;;;;;;0.70;0.70;;;-1.60;99.90;;;;;;5015405;28;20945;-86
2021/11/24 02:58:32;;;;;;;0.30;0.30;;;-1.60;99.90;;;;;;5015110;28;20981;-86
2021/11/24 03:01:02;;;;;;;0.37;0.37;;;-1.60;99.90;;;;;;5015257;28;20475;-86
2021/11/24 03:03:29;;;;;;;0.30;0.30;;;-1.70;99.90;;;;;;5015004;28;21001;-86
2021/11/24 03:05:56;;;;;;;0.30;0.30;;;-1.70;99.90;;;;;;5015372;28;20476;-86
2021/11/24 03:08:23;;;;;;;0.40;0.40;;;-1.80;99.90;;;;;;5015247;28;20444;-86
2021/11/24 03:10:50;;;;;;;0.50;0.50;;;-1.80;99.90;;;;;;5015560;28;20437;-86
2021/11/24 03:13:18;;;;;;;0.90;0.50;;;-1.80;99.90;;;;;;5015191;28;20426;-86
2021/11/24 03:15:44;;;;;;;0.57;0.57;;;-1.70;99.90;;;;;;5015075;28;20457;-86
2021/11/24 03:18:11;;;;;;;0.50;0.50;;;-1.60;99.90;;;;;;5014845;28;20475;-86
2021/11/24 03:20:38;;;;;;;0.30;0.30;;;-1.60;99.90;;;;;;5014990;28;20459;-86
2021/11/24 03:23:07;;;;;;;0.30;0.30;;;-1.50;99.90;;;;;;5015056;28;20459;-86
2021/11/24 03:25:34;;;;;;;0.50;0.50;;;-1.50;99.90;;;;;;5014980;28;20468;-86
2021/11/24 03:28:01;;;;;;;0.37;0.37;;;-1.50;99.90;;;;;;5015346;28;20440;-86
2021/11/24 03:30:30;;;;;;;0.30;0.30;;;-1.40;99.90;;;;;;5014822;28;20455;-87
2021/11/24 03:32:59;;;;;;;0.30;0.30;;;-1.40;99.90;;;;;;5014555;28;20426;-86
2021/11/24 03:35:26;;;;;;;0.30;0.30;;;-1.40;99.90;;;;;;5014668;28;20464;-86
2021/11/24 03:37:54;;;;;;;0.30;0.30;;;-1.40;99.90;;;;;;5014477;28;20487;-86
2021/11/24 03:40:23;;;;;;;0.30;0.30;;;-1.30;99.90;;;;;;5014613;28;20433;-86
2021/11/24 03:42:51;;;;;;;0.30;0.30;;;-1.30;99.90;;;;;;5014455;28;20885;-86
2021/11/24 03:45:20;;;;;;;0.30;0.30;;;-1.30;99.90;;;;;;5014657;28;20530;-86
2021/11/24 03:47:48;;;;;;;0.40;0.40;;;-1.30;99.90;;;;;;5014240;28;20418;-86
2021/11/24 03:50:16;;;;;;;0.30;0.30;;;-1.30;99.90;;;;;;5014964;28;20443;-86
2021/11/24 03:52:44;;;;;;;0.30;0.30;;;-1.40;99.90;;;;;;5014240;28;20430;-86
2021/11/24 03:55:12;;;;;;;0.30;0.30;;;-1.40;99.90;;;;;;5014741;28;20463;-86
2021/11/24 03:57:39;;;;;;;0.93;0.93;;;-1.40;99.90;;;;;;5014650;28;20470;-86
2021/11/24 04:00:09;;;;;;;0.30;0.30;;;-1.40;99.90;;;;;;5014555;28;20458;-86
2021/11/24 04:02:37;;;;;;;1.43;0.57;;;-1.40;99.90;;;;;;5014246;28;20466;-86
2021/11/24 04:05:07;;;;;;;0.67;0.67;;;-1.40;99.90;;;;;;5014694;28;20479;-86
2021/11/24 04:07:34;;;;;;;0.47;0.47;;;-1.40;99.90;;;;;;5014371;28;20454;-87
2021/11/24 04:10:01;;;;;;;0.60;0.60;;;-1.40;99.90;;;;;;5014077;28;20448;-86
2021/11/24 04:12:28;;;;;;;0.63;0.63;;;-1.40;99.90;;;;;;5014072;28;20418;-86
2021/11/24 04:14:55;;;;;;;0.30;0.30;;;-1.40;99.90;;;;;;5014269;28;20464;-86
2021/11/24 04:17:22;;;;;;;0.37;0.37;;;-1.30;99.90;;;;;;5013882;28;20476;-86
2021/11/24 04:19:49;;;;;;;0.60;0.60;;;-1.30;99.90;;;;;;5014240;28;20871;-86
2021/11/24 04:22:17;;;;;;;0.30;0.30;;;-1.20;99.90;;;;;;5014411;28;20437;-86
2021/11/24 04:24:44;;;;;;;0.40;0.40;;;-1.20;99.90;;;;;;5014153;28;20507;-86
2021/11/24 04:27:11;;;;;;;0.40;0.40;;;-1.20;99.90;;;;;;5014193;28;20443;-86
2021/11/24 04:29:37;;;;;;;0.37;0.37;;;-1.20;99.90;;;;;;5014208;28;20450;-86
2021/11/24 04:32:04;;;;;;;0.80;0.70;;;-1.20;99.90;;;;;;5013763;28;20944;-87
2021/11/24 04:34:31;;;;;;;0.33;0.33;;;-1.20;99.90;;;;;;5014027;28;20467;-86
2021/11/24 04:36:58;;;;;;;0.33;0.33;;;-1.10;99.90;;;;;;5014046;28;20422;-87
2021/11/24 04:39:26;;;;;;;0.30;0.30;;;-1.10;99.90;;;;;;5014281;28;20435;-86
2021/11/24 04:41:53;;;;;;;0.37;0.37;;;-1.10;99.90;;;;;;5013939;28;20795;-86
2021/11/24 04:44:20;;;;;;;0.43;0.43;;;-1.10;99.90;;;;;;5013677;28;20537;-86
2021/11/24 04:46:46;;;;;;;0.30;0.30;;;-1.10;99.90;;;;;;5013755;28;20410;-87
2021/11/24 04:49:13;;;;;;;0.30;0.30;;;-1.20;99.90;;;;;;5016494;28;20925;-86
2021/11/24 04:51:40;;;;;;;0.40;0.40;;;-1.10;99.90;;;;;;5017932;28;20426;-87
2021/11/24 04:54:07;;;;;;;0.40;0.40;;;-1.20;99.90;;;;;;5017631;28;20422;-87
2021/11/24 04:56:35;;;;;;;0.30;0.30;;;-1.20;99.90;;;;;;5018011;28;20476;-87
2021/11/24 04:59:03;;;;;;;0.30;0.30;;;-1.20;99.90;;;;;;5017772;28;20486;-86
2021/11/24 05:01:30;;;;;;;0.30;0.30;;;-1.20;99.90;;;;;;5017587;28;20547;-87
2021/11/24 05:03:57;;;;;;;0.30;0.30;;;-1.20;99.90;;;;;;5017622;28;20835;-86
2021/11/24 05:06:24;;;;;;;0.30;0.30;;;-1.20;99.90;;;;;;5017670;28;20454;-86
2021/11/24 05:08:51;;;;;;;0.30;0.30;;;-1.30;99.90;;;;;;5017491;28;20845;-86
2021/11/24 05:11:21;;;;;;;1.50;1.40;;;-1.20;99.90;;;;;;5017585;28;20451;-86
2021/11/24 05:13:52;;;;;;;0.30;0.30;;;-1.30;99.90;;;;;;5017465;28;20447;-87
2021/11/24 05:16:20;;;;;;;0.30;0.30;;;-1.30;99.90;;;;;;5017896;28;20849;-87
2021/11/24 05:18:48;;;;;;;0.30;0.30;;;-1.30;99.90;;;;;;5017839;28;20507;-86
2021/11/24 05:21:19;;;;;;;0.30;0.30;;;-1.20;99.90;;;;;;5017567;28;20472;-87
2021/11/24 05:23:46;;;;;;;0.30;0.30;;;-1.20;99.90;;;;;;5017335;28;20431;-86
2021/11/24 05:26:13;;;;;;;0.30;0.30;;;-1.20;99.90;;;;;;5017278;28;20451;-86
2021/11/24 05:28:40;;;;;;;0.30;0.30;;;-1.30;99.90;;;;;;5017298;28;20935;-87
2021/11/24 05:31:08;;;;;;;0.30;0.30;;;-1.30;99.90;;;;;;5016959;28;20435;-86
2021/11/24 05:33:36;;;;;;;0.30;0.30;;;-1.40;99.90;;;;;;5017044;28;20447;-87
2021/11/24 05:36:04;;;;;;;0.37;0.37;;;-1.40;99.90;;;;;;5017262;28;20475;-87
2021/11/24 05:38:31;;;;;;;0.30;0.30;;;-1.50;99.90;;;;;;5017039;28;20483;-86
2021/11/24 05:40:57;;;;;;;0.97;0.97;;;-1.50;99.90;;;;;;5017751;28;20455;-86
2021/11/24 05:43:26;;;;;;;0.50;0.50;;;-1.50;99.90;;;;;;5016860;28;20524;-86
2021/11/24 05:48:36;;;;;;;0.30;0.30;;;-1.50;99.90;;;;;;5016849;28;20882;-86
2021/11/24 05:51:03;;;;;;;0.80;0.80;;;-1.50;99.90;;;;;;5018629;28;20455;-86
2021/11/24 05:53:30;;;;;;;0.80;0.67;;;-1.50;99.90;;;;;;5018081;28;20437;-86
2021/11/24 05:55:58;;;;;;;0.40;0.40;;;-1.50;99.90;;;;;;5016870;28;20472;-86
2021/11/24 05:58:25;;;;;;;0.30;0.30;;;-1.50;99.90;;;;;;5016807;28;20471;-86
2021/11/24 06:00:52;;;;;;;0.30;0.30;;;-1.50;99.90;;;;;;5016306;28;20421;-87
2021/11/24 06:03:19;;;;;;;0.93;0.50;;;-1.50;99.90;;;;;;5016907;28;20454;-86
2021/11/24 06:05:48;;;;;;;0.30;0.30;;;-1.60;99.90;;;;;;5016340;28;20475;-87
2021/11/24 06:08:15;;;;;;;0.40;0.40;;;-1.60;99.90;;;;;;5016464;28;20418;-86
2021/11/24 06:10:43;;;;;;;0.40;0.40;;;-1.60;99.90;;;;;;5016883;28;20426;-87
2021/11/24 06:13:09;;;;;;;0.33;0.33;;;-1.70;99.90;;;;;;5016516;28;20426;-84
2021/11/24 06:15:36;;;;;;;0.30;0.30;;;-1.70;99.90;;;;;;5015810;28;20442;-84
2021/11/24 06:18:04;;;;;;;0.40;0.40;;;-1.80;99.90;;;;;;5015688;28;20494;-84
2021/11/24 06:20:32;;;;;;;0.40;0.40;;;-1.70;99.90;;;;;;5015629;28;20406;-84
2021/11/24 06:23:00;;;;;;;0.30;0.30;;;-1.70;99.90;;;;;;5015714;28;20522;-84
2021/11/24 06:25:27;;;;;;;0.30;0.30;;;-1.80;99.90;;;;;;5015686;28;20446;-85
2021/11/24 06:27:54;;;;;;;1.03;1.00;;;-1.90;99.90;;;;;;5015490;28;20814;-84
2021/11/24 06:30:21;;;;;;;0.30;0.30;;;-1.90;99.90;;;;;;5016117;28;20463;-84
2021/11/24 06:32:48;;;;;;;0.40;0.40;;;-1.90;99.90;;;;;;5023299;28;20466;-84
2021/11/24 06:35:15;;;;;;;0.30;0.30;;;-1.90;99.90;;;;;;5015497;28;20452;-84
2021/11/24 06:37:43;;;;;;;0.30;0.30;;;-1.90;99.90;;;;;;5015515;28;20428;-84
2021/11/24 06:40:12;;;;;;;0.40;0.40;;;-1.90;99.90;;;;;;5015589;28;20451;-85
2021/11/24 06:42:39;;;;;;;0.30;0.30;;;-1.90;99.90;;;;;;5015076;28;20868;-84
2021/11/24 06:45:07;;;;;;;1.20;1.20;;;-1.90;99.90;;;;;;5015172;28;20449;-84
2021/11/24 06:47:35;;;;;;;0.30;0.30;;;-1.90;99.90;;;;;;5015410;28;20930;-84
2021/11/24 06:50:02;;;;;;;0.30;0.30;;;-1.90;99.90;;;;;;5015861;28;20475;-84
2021/11/24 06:52:29;;;;;;;0.40;0.40;;;-1.90;99.90;;;;;;5014858;28;20466;-84
2021/11/24 06:54:55;;;;;;;0.30;0.30;;;-1.90;99.90;;;;;;5015164;28;20471;-84
2021/11/24 06:57:23;;;;;;;0.30;0.30;;;-1.90;99.90;;;;;;5017711;28;20451;-84
2021/11/24 06:59:50;;;;;;;0.43;0.43;;;-1.80;99.90;;;;;;5018365;28;20475;-85
2021/11/24 07:02:17;;;;;;;0.33;0.33;;;-1.90;99.90;;;;;;5014920;28;20430;-84
2021/11/24 07:04:44;;;;;;;0.30;0.30;;;-1.90;99.90;;;;;;5014709;28;20430;-84
2021/11/24 07:07:11;;;;;;;0.30;0.30;;;-1.80;99.90;;;;;;5014532;28;20407;-84
2021/11/24 07:09:39;;;;;;;0.40;0.40;;;-1.80;99.90;;;;;;5014522;28;20418;-84
2021/11/24 07:12:07;;;;;;;2.77;2.40;;;-1.80;99.90;;;;;;5013814;28;20423;-84
2021/11/24 07:14:35;;;;;;;0.30;0.30;;;-1.80;99.90;;;;;;5014742;28;20449;-84
2021/11/24 07:17:02;;;;;;;0.67;0.67;;;-1.80;99.90;;;;;;5015158;28;20764;-84
2021/11/24 07:19:29;;;;;;;0.50;0.50;;;-1.80;99.90;;;;;;5014281;28;20885;-84
2021/11/24 07:21:56;;;;;;;1.07;1.07;;;-1.80;99.90;;;;;;5014584;28;20448;-84
2021/11/24 07:24:23;;;;;;;1.03;0.87;;;-1.80;99.90;;;;;;5014271;28;20983;-84
2021/11/24 07:26:50;;;;;;;0.30;0.30;;;-1.80;99.90;;;;;;5014407;28;20906;-84
2021/11/24 07:29:17;;;;;;;0.40;0.40;;;-1.80;99.90;;;;;;5014489;28;20570;-84
2021/11/24 07:31:45;;;;;;;0.60;0.60;;;-1.70;99.90;;;;;;5014935;28;20436;-84
2021/11/24 07:34:13;;;;;;;0.33;0.33;;;-1.70;99.90;;;;;;5014611;28;20475;-84
2021/11/24 07:36:40;;;;;;;0.30;0.30;;;-1.70;99.90;;;;;;5014258;28;20506;-84
2021/11/24 07:39:08;;;;;;;0.40;0.40;;;-1.60;99.90;;;;;;5014299;28;20460;-84
2021/11/24 07:41:35;;;;;;;0.40;0.40;;;-1.50;99.90;;;;;;5015281;28;20450;-87
2021/11/24 07:44:02;;;;;;;0.30;0.30;;;-1.30;99.90;;;;;;5015137;28;20518;-87
2021/11/24 07:46:29;;;;;;;0.30;0.30;;;-1.20;99.90;;;;;;5014866;28;20410;-87
2021/11/24 07:48:58;;;;;;;0.30;0.30;;;-1.20;99.90;;;;;;5014633;28;20427;-87
2021/11/24 07:51:25;;;;;;;0.30;0.30;;;-1.20;99.90;;;;;;5014926;28;20432;-87
2021/11/24 07:53:52;;;;;;;0.30;0.30;;;-1.10;99.90;;;;;;5015074;28;20458;-87
2021/11/24 07:56:19;;;;;;;0.30;0.27;;;-1.00;99.90;;;;;;5015357;28;20455;-87
2021/11/24 07:58:46;;;;;;;0.30;0.30;;;-1.00;99.90;;;;;;5013764;28;20475;-84
2021/11/24 08:01:14;;;;;;;0.60;0.60;;;-1.00;99.90;;;;;;5013980;28;20418;-83
2021/11/24 08:03:42;;;;;;;0.63;0.63;;;-1.00;99.90;;;;;;5014647;28;20982;-84
2021/11/24 08:06:10;;;;;;;0.80;0.80;;;-0.90;99.90;;;;;;5014806;28;20426;-84
2021/11/24 08:08:37;;;;;;;0.30;0.30;;;-0.90;99.90;;;;;;5014125;28;20808;-83
2021/11/24 08:11:03;;;;;;;0.30;0.30;;;-0.90;99.90;;;;;;5014690;28;20454;-83
2021/11/24 08:13:30;;;;;;;0.30;0.30;;;-0.80;99.90;;;;;;5014039;28;20807;-83
2021/11/24 08:15:58;;;;;;;0.30;0.30;;;-0.80;99.90;;;;;;5014160;28;20482;-84
2021/11/24 08:18:25;;;;;;;0.30;0.30;;;-0.80;99.90;;;;;;5014248;28;20606;-86
2021/11/24 08:20:52;;;;;;;0.30;0.30;;;-0.80;99.90;;;;;;5014522;28;20448;-86
2021/11/24 08:23:20;;;;;;;0.83;0.83;;;-0.70;99.90;;;;;;5014307;28;20429;-86
2021/11/24 08:25:47;;;;;;;0.60;0.60;;;-0.60;99.90;;;;;;5014000;28;20900;-87
2021/11/24 08:28:14;;;;;;;0.70;0.67;;;-0.50;99.90;;;;;;5014383;28;20457;-87
2021/11/24 08:30:41;;;;;;;0.30;0.30;;;-0.50;99.90;;;;;;5014232;28;20429;-87
2021/11/24 08:33:08;;;;;;;0.80;0.80;;;-0.40;99.90;;;;;;5014583;28;20426;-87
2021/11/24 08:35:35;;;;;;;0.30;0.30;;;-0.30;99.90;;;;;;5014335;28;20458;-87
2021/11/24 08:38:02;;;;;;;0.30;0.30;;;-0.10;99.90;;;;;;5013937;28;20462;-87
2021/11/24 08:40:30;;;;;;;0.60;0.60;;;0.20;99.90;;;;;;5014067;28;20468;-86
2021/11/24 08:42:57;;;;;;;0.30;0.30;;;0.50;99.90;;;;;;5013799;28;20978;-85
2021/11/24 08:45:24;;;;;;;0.40;0.40;;;1.00;99.90;;;;;;5013884;28;20476;-85
2021/11/24 08:47:51;;;;;;;0.70;0.70;;;1.70;99.90;;;;;;5013826;28;20452;-85
2021/11/24 08:50:18;;;;;;;1.70;1.20;;;2.50;99.90;;;;;;5012990;28;20947;-84
2021/11/24 08:52:45;;;;;;;0.73;0.73;;;3.30;99.90;;;;;;5013360;28;20807;-84
2021/11/24 08:55:13;;;;;;;0.40;0.40;;;3.60;99.90;;;;;;5013444;28;20455;-84
2021/11/24 08:57:42;;;;;;;0.50;0.50;;;3.40;99.90;;;;;;5013044;28;21009;-84
2021/11/24 09:00:12;;;;;;;0.67;0.63;;;3.50;99.90;;;;;;5013099;28;20487;-84
2021/11/24 09:02:39;;;;;;;0.30;0.30;;;4.70;99.90;;;;;;5013447;28;20518;-84
2021/11/24 09:05:07;;;;;;;0.37;0.37;;;5.40;99.90;;;;;;5012884;28;20487;-84
2021/11/24 09:07:34;;;;;;;0.40;0.40;;;6.30;99.90;;;;;;5014359;28;20440;-83
2021/11/24 09:10:02;;;;;;;0.50;0.50;;;7.30;99.90;;;;;;5013314;28;20818;-83
2021/11/24 09:12:29;;;;;;;0.60;0.60;;;7.60;99.90;;;;;;5012878;28;20823;-83
2021/11/24 09:14:57;;;;;;;0.93;0.30;;;7.90;99.90;;;;;;5012799;28;20975;-83
2021/11/24 09:17:25;;;;;;;0.77;0.60;;;8.20;99.90;;;;;;5013319;28;20444;-84
2021/11/24 09:19:51;;;;;;;0.40;0.40;;;8.20;99.90;;;;;;5013365;28;20479;-83
2021/11/24 09:22:19;;;;;;;0.97;0.97;;;8.00;99.90;;;;;;5013175;28;20447;-84
2021/11/24 09:24:47;;;;;;;6.07;0.77;;;7.80;99.90;;;;;;5012700;28;20846;-83
2021/11/24 09:27:17;;;;;;;0.90;0.87;;;7.20;99.90;;;;;;5012781;28;20443;-83
2021/11/24 09:29:46;;;;;;;0.73;0.70;;;7.20;99.90;;;;;;5013107;28;20462;-84
2021/11/24 09:32:16;;;;;;;0.87;0.87;;;7.20;99.90;;;;;;5013010;28;20440;-84
2021/11/24 09:34:43;;;;;;;0.77;0.77;;;7.20;99.90;;;;;;5014085;28;20475;-84
2021/11/24 09:37:10;;;;;;;0.40;0.40;;;7.10;99.90;;;;;;5016689;28;20456;-83
2021/11/24 09:39:37;;;;;;;4.00;0.60;;;7.20;99.90;;;;;;5016420;28;20478;-84
2021/11/24 09:42:04;;;;;;;0.97;0.90;;;7.00;99.90;;;;;;5016417;28;20436;-83
2021/11/24 09:47:08;;;;;;;0.40;0.40;;;6.80;99.90;;;;;;5681807;22;20543;-80
2021/11/24 09:49:40;;;;;;;0.90;0.90;;;7.30;99.90;;;;;;5035725;28;20969;-80
2021/11/24 09:52:08;;;;;;;1.17;1.17;;;7.50;99.90;;;;;;5035929;28;20439;-80
2021/11/24 09:54:35;;;;;;;0.63;0.50;;;7.50;99.90;;;;;;5036235;28;20482;-80
2021/11/24 09:57:02;;;;;;;0.50;0.50;;;7.50;99.90;;;;;;5036111;28;20439;-80
2021/11/24 09:59:29;;;;;;;0.40;0.40;;;7.50;99.90;;;;;;5036100;28;20471;-80
2021/11/24 10:01:57;;;;;;;7.43;0.80;;;7.40;99.90;;;;;;5035670;28;20911;-81
2021/11/24 10:04:24;;;;;;;0.40;0.40;;;7.30;99.90;;;;;;5035743;28;20947;-81
2021/11/24 10:06:52;;;;;;;0.30;0.27;;;6.90;99.90;;;;;;5035539;28;20919;-81
2021/11/24 10:09:19;;;;;;;0.40;0.40;;;6.70;99.90;;;;;;5036638;28;20427;-82
2021/11/24 10:11:46;;;;;;;0.60;0.60;;;6.70;99.90;;;;;;5035661;28;20427;-82
2021/11/24 10:14:13;;;;;;;0.40;0.30;;;6.60;99.90;;;;;;5035591;28;20475;-82
2021/11/24 10:16:40;;;;;;;0.30;0.30;;;6.30;99.90;;;;;;5035309;28;20428;-82
2021/11/24 10:19:09;;;;;;;0.40;0.33;;;6.20;99.90;;;;;;5035478;28;20849;-82
2021/11/24 10:21:52;;;;;;;0.50;0.50;;;6.10;99.90;;;;;;5035477;28;20442;-82
2021/11/24 10:24:28;;;;;;;0.70;0.30;;;5.80;99.90;;;;;;5035064;28;20851;-82
2021/11/24 10:26:55;;;;;;;0.40;0.40;;;5.70;99.90;;;;;;5035634;28;20435;-82
2021/11/24 10:29:22;;;;;;;1.30;0.60;;;5.70;99.90;;;;;;5035152;28;20946;-83
2021/11/24 10:31:52;;;;;;;0.30;0.30;;;6.00;99.90;;;;;;5035517;28;20447;-82
2021/11/24 10:34:22;;;;;;;0.60;0.57;;;6.00;99.90;;;;;;5035135;28;20463;-82
2021/11/24 10:37:05;;;;;;;0.40;0.30;;;5.80;99.90;;;;;;5035221;28;20931;-82
2021/11/24 10:39:37;;;;;;;1.37;1.30;;;5.70;99.90;;;;;;5034760;28;20484;-82
2021/11/24 10:42:07;;;;;;;0.60;0.60;;;5.70;99.90;;;;;;5035196;28;20930;-82
2021/11/24 10:44:34;;;;;;;0.80;0.80;;;5.70;99.90;;;;;;5034967;28;20474;-83
2021/11/24 10:47:03;;;;;;;0.30;0.30;;;5.70;99.90;;;;;;5035162;28;20471;-82
2021/11/24 10:49:35;;;;;;;0.63;0.63;;;5.70;99.90;;;;;;5034658;28;20938;-82
2021/11/24 10:52:16;;;;;;;0.90;0.57;;;5.70;99.90;;;;;;5034912;28;20426;-82
2021/11/24 10:54:55;;;;;;;1.53;0.50;;;5.60;99.90;;;;;;5034730;28;20482;-83
2021/11/24 10:57:21;;;;;;;0.30;0.30;;;5.50;99.90;;;;;;5035147;28;20418;-83
2021/11/24 10:59:48;;;;;;;0.80;0.43;;;5.60;99.90;;;;;;5034564;28;20463;-82
2021/11/24 11:02:17;;;;;;;0.50;0.50;;;5.60;99.90;;;;;;5034746;28;20434;-82
2021/11/24 11:05:02;;;;;;;2.70;0.70;;;5.70;99.90;;;;;;5034601;28;20476;-82
2021/11/24 11:07:30;;;;;;;1.50;1.20;;;5.60;99.90;;;;;;5034621;28;20467;-82
2021/11/24 11:10:14;;;;;;;0.40;0.40;;;5.70;99.90;;;;;;5034556;28;20442;-82
2021/11/24 11:12:44;;;;;;;0.40;0.40;;;5.70;99.90;;;;;;5034538;28;20442;-82
2021/11/24 11:15:17;;;;;;;0.77;0.50;;;5.50;99.90;;;;;;5034215;28;20474;-82
2021/11/24 11:17:52;;;;;;;0.50;0.30;;;5.40;99.90;;;;;;5034443;28;20438;-82
2021/11/24 11:20:20;;;;;;;0.80;0.47;;;5.30;99.90;;;;;;5034322;28;20462;-82
2021/11/24 11:22:51;;;;;;;0.93;0.93;;;5.30;99.90;;;;;;5034338;28;20420;-82
2021/11/24 11:25:20;;;;;;;0.50;0.50;;;5.40;99.90;;;;;;5033954;28;20454;-82
2021/11/24 11:27:48;;;;;;;0.50;0.50;;;5.30;99.90;;;;;;5034602;28;20804;-82
2021/11/24 11:30:15;;;;;;;0.40;0.40;;;5.30;99.90;;;;;;5033856;28;20906;-82
2021/11/24 11:32:42;;;;;;;0.30;0.30;;;5.10;99.90;;;;;;5033847;28;20442;-82
2021/11/24 11:35:09;;;;;;;0.50;0.50;;;4.90;99.90;;;;;;5034042;28;20463;-82
2021/11/24 11:37:37;;;;;;;0.50;0.40;;;4.50;99.90;;;;;;5034192;28;20497;-83
2021/11/24 11:40:04;;;;;;;0.50;0.33;;;4.30;99.90;;;;;;5033870;28;20500;-82
2021/11/24 11:42:33;;;;;;;0.73;0.73;;;4.00;99.90;;;;;;5033949;28;20899;-81
2021/11/24 11:45:05;;;;;;;0.50;0.50;;;3.90;99.90;;;;;;5033832;28;20471;-82
2021/11/24 11:47:43;;;;;;;0.47;0.47;;;3.80;99.90;;;;;;5033701;28;20474;-82
2021/11/24 11:50:10;;;;;;;0.30;0.30;;;3.70;99.90;;;;;;5033746;28;20437;-82
2021/11/24 11:52:37;;;;;;;0.30;0.30;;;3.70;99.90;;;;;;5033830;28;20458;-82
2021/11/24 11:55:17;;;;;;;0.30;0.30;;;3.60;99.90;;;;;;5033695;28;20820;-82
2021/11/24 11:57:46;;;;;;;1.33;1.23;;;3.50;99.90;;;;;;5033955;28;20796;-81
2021/11/24 12:00:13;;;;;;;0.87;0.87;;;3.30;99.90;;;;;;5033275;28;21012;-81
2021/11/24 12:02:49;;;;;;;1.73;1.60;;;3.40;99.90;;;;;;5033618;28;20446;-81
2021/11/24 12:05:16;;;;;;;0.90;0.70;;;3.30;99.90;;;;;;5033563;28;20541;-82
2021/11/24 12:08:08;;;;;;;0.90;0.50;;;3.10;99.90;;;;;;5033616;28;20450;-81
2021/11/24 12:10:57;;;;;;;1.33;1.13;;;3.00;99.90;;;;;;5033521;28;20434;-81
2021/11/24 12:13:32;;;;;;;0.87;0.87;;;3.00;99.90;;;;;;5033498;28;20439;-82
2021/11/24 12:15:59;;;;;;;0.30;0.30;;;2.90;99.90;;;;;;5033257;28;21004;-82
2021/11/24 12:18:26;;;;;;;0.60;0.60;;;2.80;99.90;;;;;;5033193;28;20465;-81
2021/11/24 12:20:54;;;;;;;0.30;0.30;;;2.80;99.90;;;;;;5033200;28;21013;-81
2021/11/24 12:23:24;;;;;;;0.50;0.50;;;2.80;99.90;;;;;;5033124;28;21032;-81
2021/11/24 12:25:53;;;;;;;0.47;0.47;;;2.80;99.90;;;;;;5033318;28;20877;-81
2021/11/24 12:28:23;;;;;;;0.50;0.50;;;2.90;99.90;;;;;;5033261;28;20457;-81
2021/11/24 12:31:05;;;;;;;0.30;0.30;;;2.90;99.90;;;;;;5033286;28;20489;-81
2021/11/24 12:33:35;;;;;;;0.30;0.30;;;2.90;99.90;;;;;;5033294;28;20485;-80
2021/11/24 12:36:05;;;;;;;0.93;0.93;;;2.80;99.90;;;;;;5032920;28;20893;-81
2021/11/24 12:38:34;;;;;;;0.30;0.30;;;2.80;99.90;;;;;;5032960;28;20773;-81
2021/11/24 12:41:06;;;;;;;0.87;0.50;;;2.80;99.90;;;;;;5032809;28;20493;-81
2021/11/24 12:43:35;;;;;;;1.83;1.73;;;2.90;99.90;;;;;;5033265;28;20988;-80
2021/11/24 12:46:11;;;;;;;0.90;0.90;;;3.00;99.90;;;;;;5033208;28;20479;-81
2021/11/24 12:48:43;;;;;;;0.30;0.30;;;2.90;99.90;;;;;;5032495;28;20482;-81
2021/11/24 12:51:13;;;;;;;0.47;0.47;;;2.80;99.90;;;;;;5033066;28;20431;-80
2021/11/24 12:53:39;;;;;;;0.30;0.30;;;2.80;99.90;;;;;;5033027;28;20446;-80
2021/11/24 12:56:09;;;;;;;0.50;0.50;;;2.90;99.90;;;;;;5032846;28;20478;-81
2021/11/24 12:58:35;;;;;;;0.30;0.30;;;2.80;99.90;;;;;;5032678;28;20775;-80
2021/11/24 13:01:18;;;;;;;0.40;0.40;;;2.80;99.90;;;;;;5032614;28;20846;-81